createdAt,value
2019-05-06T00:01:24.495Z,3.70
2019-05-06T00:03:54.149Z,3.70
2019-05-06T00:06:23.691Z,3.60
2019-05-06T00:08:54.388Z,3.50
2019-05-06T00:11:23.878Z,3.50
2019-05-06T00:13:54.318Z,3.50
2019-05-06T00:16:23.780Z,3.40
2019-05-06T00:18:54.024Z,3.40
2019-05-06T00:21:24.449Z,3.30
2019-05-06T00:23:54.596Z,3.40
2019-05-06T00:26:41.413Z,3.40
2019-05-06T00:29:13.865Z,3.40
2019-05-06T00:31:43.883Z,3.40
2019-05-06T00:34:13.723Z,3.50
2019-05-06T00:36:43.629Z,3.50
2019-05-06T00:39:14.987Z,3.50
2019-05-06T00:41:45.100Z,3.60
2019-05-06T00:44:14.346Z,3.60
2019-05-06T00:46:43.782Z,3.50
2019-05-06T00:49:14.302Z,3.60
2019-05-06T00:51:43.965Z,3.50
2019-05-06T00:54:14.413Z,3.50
2019-05-06T00:56:44.752Z,3.50
2019-05-06T00:59:14.348Z,3.60
2019-05-06T01:01:43.500Z,3.60
2019-05-06T01:04:13.945Z,3.60
2019-05-06T01:06:44.056Z,3.50
2019-05-06T01:09:18.866Z,3.50
2019-05-06T01:11:48.929Z,3.40
2019-05-06T01:14:30.881Z,3.30
2019-05-06T01:16:59.310Z,3.40
2019-05-06T01:19:27.737Z,3.30
2019-05-06T01:21:56.149Z,3.30
2019-05-06T01:24:24.562Z,3.30
2019-05-06T01:26:53.651Z,3.20
2019-05-06T01:29:24.100Z,3.20
2019-05-06T01:31:54.188Z,3.20
2019-05-06T01:34:24.443Z,3.10
2019-05-06T01:36:54.531Z,3.10
2019-05-06T01:39:24.616Z,3.10
2019-05-06T01:42:00.345Z,3.20
2019-05-06T01:44:28.777Z,3.20
2019-05-06T01:46:57.252Z,3.20
2019-05-06T01:49:25.744Z,3.30
2019-05-06T01:51:54.739Z,3.10
2019-05-06T01:54:24.832Z,3.00
2019-05-06T01:56:53.945Z,2.90
2019-05-06T01:59:24.445Z,2.90
2019-05-06T02:01:58.046Z,2.90
2019-05-06T02:04:24.482Z,3.10
2019-05-06T02:06:54.507Z,3.10
2019-05-06T02:09:24.746Z,3.10
2019-05-06T02:11:53.647Z,3.10
2019-05-06T02:14:24.491Z,3.10
2019-05-06T02:16:54.543Z,3.10
2019-05-06T02:19:24.187Z,3.10
2019-05-06T02:21:54.556Z,3.20
2019-05-06T02:24:24.694Z,3.20
2019-05-06T02:26:54.284Z,3.10
2019-05-06T02:29:34.680Z,3.10
2019-05-06T02:32:30.181Z,3.00
2019-05-06T02:34:54.993Z,3.10
2019-05-06T02:37:36.924Z,3.10
2019-05-06T02:40:27.377Z,3.10
2019-05-06T02:42:56.022Z,3.30
2019-05-06T02:45:24.741Z,3.30
2019-05-06T02:48:13.749Z,3.20
2019-05-06T02:50:46.313Z,3.10
2019-05-06T02:53:16.546Z,3.20
2019-05-06T02:55:44.970Z,3.10
2019-05-06T02:58:14.802Z,3.10
2019-05-06T03:00:43.663Z,3.10
2019-05-06T03:03:14.091Z,3.10
2019-05-06T03:05:43.851Z,3.20
2019-05-06T03:08:13.451Z,3.10
2019-05-06T03:10:44.360Z,3.20
2019-05-06T03:13:14.180Z,3.30
2019-05-06T03:15:43.413Z,3.10
2019-05-06T03:18:14.676Z,3.20
2019-05-06T03:20:58.446Z,3.20
2019-05-06T03:23:35.209Z,3.20
2019-05-06T03:26:06.463Z,3.10
2019-05-06T03:28:34.131Z,3.00
2019-05-06T03:31:06.941Z,3.20
2019-05-06T03:33:54.156Z,3.10
2019-05-06T03:36:15.361Z,3.20
2019-05-06T03:38:33.684Z,3.20
2019-05-06T03:41:03.103Z,3.20
2019-05-06T03:43:33.802Z,3.20
2019-05-06T03:46:06.626Z,3.10
2019-05-06T03:48:39.394Z,3.10
2019-05-06T03:51:07.805Z,3.10
2019-05-06T03:53:36.550Z,3.10
2019-05-06T03:56:06.108Z,3.10
2019-05-06T03:58:37.264Z,3.10
2019-05-06T04:01:13.199Z,3.20
2019-05-06T04:03:47.707Z,3.10
2019-05-06T04:06:13.828Z,3.10
2019-05-06T04:08:43.766Z,3.10
2019-05-06T04:11:15.539Z,3.10
2019-05-06T04:13:45.151Z,2.90
2019-05-06T04:16:15.386Z,3.00
2019-05-06T04:18:53.937Z,3.10
2019-05-06T04:21:26.268Z,3.10
2019-05-06T04:23:56.489Z,3.20
2019-05-06T04:26:33.035Z,3.20
2019-05-06T04:29:03.986Z,3.20
2019-05-06T04:31:33.570Z,3.20
2019-05-06T04:34:13.971Z,3.20
2019-05-06T04:36:33.710Z,3.20
2019-05-06T04:39:04.094Z,3.20
2019-05-06T04:41:35.360Z,3.20
2019-05-06T04:44:04.536Z,3.30
2019-05-06T04:46:34.811Z,3.20
2019-05-06T04:49:03.959Z,3.30
2019-05-06T04:51:36.768Z,3.40
2019-05-06T04:54:04.630Z,3.30
2019-05-06T04:56:34.408Z,3.20
2019-05-06T04:59:06.321Z,3.20
2019-05-06T05:01:34.205Z,3.30
2019-05-06T05:04:22.289Z,3.30
2019-05-06T05:06:35.781Z,3.60
2019-05-06T05:09:05.449Z,3.70
2019-05-06T05:11:35.566Z,3.50
2019-05-06T05:14:21.727Z,3.40
2019-05-06T05:16:55.604Z,3.40
2019-05-06T05:19:24.279Z,3.60
2019-05-06T05:21:54.336Z,3.70
2019-05-06T05:24:23.552Z,3.70
2019-05-06T05:26:52.334Z,3.80
2019-05-06T05:29:22.769Z,3.70
2019-05-06T05:31:52.962Z,3.90
2019-05-06T05:34:22.433Z,4.00
2019-05-06T05:36:52.085Z,3.80
2019-05-06T05:39:22.288Z,3.90
2019-05-06T05:41:52.341Z,3.70
2019-05-06T05:44:34.791Z,3.90
2019-05-06T05:47:03.580Z,4.10
2019-05-06T05:49:38.441Z,4.30
2019-05-06T05:52:06.901Z,4.70
2019-05-06T05:54:35.440Z,4.70
2019-05-06T05:57:03.935Z,4.70
2019-05-06T05:59:32.926Z,4.60
2019-05-06T06:02:03.800Z,4.70
2019-05-06T06:04:32.195Z,4.80
2019-05-06T06:07:02.731Z,4.80
2019-05-06T06:09:33.697Z,4.80
2019-05-06T06:12:03.924Z,4.90
2019-05-06T06:14:43.741Z,5.00
2019-05-06T06:17:32.502Z,5.00
2019-05-06T06:20:18.814Z,5.20
2019-05-06T06:22:52.176Z,5.40
2019-05-06T06:25:23.584Z,5.20
2019-05-06T06:27:52.232Z,5.30
2019-05-06T06:30:42.386Z,5.50
2019-05-06T06:33:12.912Z,5.30
2019-05-06T06:35:45.469Z,5.50
2019-05-06T06:38:24.596Z,5.40
2019-05-06T06:40:55.567Z,5.50
2019-05-06T06:43:25.154Z,5.60
2019-05-06T06:45:53.637Z,5.70
2019-05-06T06:48:22.913Z,5.90
2019-05-06T06:50:52.214Z,6.00
2019-05-06T06:53:21.832Z,6.00
2019-05-06T06:55:52.372Z,5.90
2019-05-06T06:58:23.321Z,6.00
2019-05-06T07:01:09.459Z,6.00
2019-05-06T07:03:40.588Z,6.10
2019-05-06T07:06:17.243Z,6.10
2019-05-06T07:08:45.660Z,6.20
2019-05-06T07:11:14.090Z,6.20
2019-05-06T07:13:45.589Z,6.20
2019-05-06T07:16:15.568Z,6.20
2019-05-06T07:18:43.990Z,6.10
2019-05-06T07:21:22.696Z,6.20
2019-05-06T07:23:52.980Z,6.30
2019-05-06T07:26:23.840Z,6.40
2019-05-06T07:28:52.729Z,6.40
2019-05-06T07:31:25.861Z,6.40
2019-05-06T07:33:52.241Z,6.50
2019-05-06T07:36:22.779Z,6.60
2019-05-06T07:38:52.760Z,6.70
2019-05-06T07:41:23.534Z,7.00
2019-05-06T07:43:53.715Z,7.00
2019-05-06T07:46:29.328Z,7.30
2019-05-06T07:48:57.777Z,7.40
2019-05-06T07:51:26.241Z,7.60
2019-05-06T07:53:54.641Z,7.50
2019-05-06T07:56:23.075Z,7.00
2019-05-06T07:58:53.110Z,6.80
2019-05-06T08:01:25.541Z,6.70
2019-05-06T08:03:53.302Z,6.50
2019-05-06T08:06:22.663Z,6.60
2019-05-06T08:08:53.735Z,7.00
2019-05-06T08:11:22.292Z,7.30
2019-05-06T08:13:52.736Z,7.60
2019-05-06T08:16:22.594Z,7.70
2019-05-06T08:18:52.795Z,7.50
2019-05-06T08:21:23.494Z,7.30
2019-05-06T08:23:53.181Z,7.60
2019-05-06T08:26:22.479Z,7.70
2019-05-06T08:28:52.663Z,7.70
2019-05-06T08:31:22.668Z,7.90
2019-05-06T08:33:52.391Z,7.70
2019-05-06T08:36:22.866Z,7.90
2019-05-06T08:38:58.903Z,7.80
2019-05-06T08:41:27.754Z,7.70
2019-05-06T08:43:56.610Z,7.80
2019-05-06T08:46:25.099Z,8.10
2019-05-06T08:48:53.520Z,8.10
2019-05-06T08:51:42.423Z,8.10
2019-05-06T08:54:15.040Z,8.10
2019-05-06T08:56:43.457Z,8.00
2019-05-06T08:59:13.895Z,8.20
2019-05-06T09:01:46.716Z,8.20
2019-05-06T09:04:16.263Z,8.00
2019-05-06T09:06:45.257Z,8.10
2019-05-06T09:09:13.835Z,8.10
2019-05-06T09:11:43.106Z,8.00
2019-05-06T09:14:13.678Z,8.10
2019-05-06T09:16:43.750Z,8.00
2019-05-06T09:19:12.985Z,8.10
2019-05-06T09:21:45.708Z,8.10
2019-05-06T09:24:12.805Z,8.20
2019-05-06T09:26:58.248Z,8.40
2019-05-06T09:29:28.295Z,8.70
2019-05-06T09:31:58.351Z,9.10
2019-05-06T09:34:34.589Z,9.30
2019-05-06T09:37:14.068Z,9.00
2019-05-06T09:39:44.643Z,8.70
2019-05-06T09:42:14.402Z,9.00
2019-05-06T09:44:44.440Z,8.70
2019-05-06T09:47:14.871Z,8.20
2019-05-06T09:49:47.684Z,8.20
2019-05-06T09:52:16.244Z,8.10
2019-05-06T09:54:48.043Z,8.20
2019-05-06T09:57:18.263Z,8.70
2019-05-06T09:59:46.760Z,8.70
2019-05-06T10:02:15.241Z,9.00
2019-05-06T10:04:43.729Z,9.30
2019-05-06T10:07:12.409Z,9.60
2019-05-06T10:09:43.221Z,9.60
2019-05-06T10:12:12.708Z,9.40
2019-05-06T10:14:43.256Z,9.50
2019-05-06T10:17:13.255Z,9.20
2019-05-06T10:19:42.902Z,9.10
2019-05-06T10:22:12.697Z,8.90
2019-05-06T10:24:43.151Z,8.90
2019-05-06T10:27:12.253Z,8.80
2019-05-06T10:29:45.867Z,8.80
2019-05-06T10:32:15.921Z,8.90
2019-05-06T10:34:44.382Z,9.10
2019-05-06T10:37:24.538Z,9.30
2019-05-06T10:40:22.620Z,9.40
2019-05-06T10:43:06.766Z,9.30
2019-05-06T10:45:35.413Z,9.30
2019-05-06T10:48:04.000Z,9.40
2019-05-06T10:50:34.083Z,9.30
2019-05-06T10:53:19.419Z,9.50
2019-05-06T10:55:50.329Z,9.70
2019-05-06T10:58:19.014Z,9.70
2019-05-06T11:00:52.763Z,9.40
2019-05-06T11:03:22.701Z,9.70
2019-05-06T11:05:53.392Z,9.50
2019-05-06T11:08:22.101Z,9.90
2019-05-06T11:10:53.208Z,10.00
2019-05-06T11:13:20.910Z,10.00
2019-05-06T11:15:49.372Z,9.60
2019-05-06T11:18:17.828Z,9.60
2019-05-06T11:20:46.260Z,9.50
2019-05-06T11:23:14.693Z,9.40
2019-05-06T11:25:43.391Z,9.20
2019-05-06T11:28:30.123Z,9.00
2019-05-06T11:31:02.501Z,8.70
2019-05-06T11:33:32.910Z,8.80
2019-05-06T11:36:09.347Z,8.60
2019-05-06T11:38:37.766Z,8.50
2019-05-06T11:41:06.300Z,8.50
2019-05-06T11:43:34.728Z,8.90
2019-05-06T11:46:03.269Z,9.20
2019-05-06T11:48:32.853Z,9.70
2019-05-06T11:51:03.013Z,9.30
2019-05-06T11:53:32.615Z,9.20
2019-05-06T11:56:02.106Z,9.30
2019-05-06T11:58:38.480Z,9.40
2019-05-06T12:01:08.618Z,9.60
2019-05-06T12:03:37.163Z,9.30
2019-05-06T12:06:05.677Z,9.80
2019-05-06T12:08:34.093Z,9.60
2019-05-06T12:11:02.931Z,9.60
2019-05-06T12:13:33.687Z,9.70
2019-05-06T12:16:02.389Z,9.50
2019-05-06T12:18:31.436Z,9.20
2019-05-06T12:21:09.033Z,9.10
2019-05-06T12:23:30.234Z,9.10
2019-05-06T12:25:58.834Z,9.40
2019-05-06T12:28:27.274Z,9.50
2019-05-06T12:30:56.525Z,9.50
2019-05-06T12:33:29.546Z,9.60
2019-05-06T12:35:59.873Z,9.60
2019-05-06T12:38:31.189Z,9.60
2019-05-06T12:41:00.140Z,9.70
2019-05-06T12:43:33.081Z,9.70
2019-05-06T12:46:03.732Z,9.40
2019-05-06T12:48:39.653Z,9.10
2019-05-06T12:51:08.104Z,9.20
2019-05-06T12:53:36.513Z,9.50
2019-05-06T12:56:04.917Z,9.70
2019-05-06T12:58:33.413Z,9.80
2019-05-06T13:01:04.069Z,9.70
2019-05-06T13:03:34.686Z,9.70
2019-05-06T13:06:07.266Z,9.70
2019-05-06T13:08:49.834Z,9.80
2019-05-06T13:11:02.758Z,9.90
2019-05-06T13:13:33.156Z,10.20
2019-05-06T13:16:02.811Z,10.20
2019-05-06T13:18:32.697Z,10.00
2019-05-06T13:21:06.313Z,10.20
2019-05-06T13:23:42.504Z,10.60
2019-05-06T13:26:12.829Z,10.70
2019-05-06T13:28:43.025Z,10.80
2019-05-06T13:31:17.098Z,10.80
2019-05-06T13:33:54.649Z,10.50
2019-05-06T13:36:22.929Z,10.50
2019-05-06T13:38:56.645Z,10.70
2019-05-06T13:41:22.172Z,11.20
2019-05-06T13:43:55.472Z,10.70
2019-05-06T13:46:25.512Z,10.70
2019-05-06T13:49:02.831Z,10.80
2019-05-06T13:51:36.003Z,10.90
2019-05-06T13:54:04.523Z,11.20
2019-05-06T13:56:33.444Z,11.40
2019-05-06T13:59:04.729Z,11.40
2019-05-06T14:01:43.918Z,11.50
2019-05-06T14:04:14.379Z,11.70
2019-05-06T14:06:43.360Z,12.00
2019-05-06T14:09:28.000Z,11.90
2019-05-06T14:11:42.308Z,12.10
2019-05-06T14:14:12.599Z,11.60
2019-05-06T14:16:42.695Z,11.10
2019-05-06T14:19:13.183Z,11.10
2019-05-06T14:21:43.177Z,11.30
2019-05-06T14:24:13.223Z,10.80
2019-05-06T14:26:49.502Z,10.00
2019-05-06T14:29:19.590Z,10.00
2019-05-06T14:31:49.624Z,9.80
2019-05-06T14:34:18.073Z,10.30
2019-05-06T14:36:46.537Z,10.00
2019-05-06T14:39:19.305Z,10.00
2019-05-06T14:41:49.376Z,10.10
2019-05-06T14:44:17.840Z,9.80
2019-05-06T14:46:56.752Z,9.90
2019-05-06T14:49:25.171Z,9.80
2019-05-06T14:51:53.819Z,9.60
2019-05-06T14:54:22.459Z,9.40
2019-05-06T14:56:55.092Z,9.40
2019-05-06T14:59:23.625Z,9.20
2019-05-06T15:01:53.694Z,9.10
2019-05-06T15:04:23.001Z,9.00
2019-05-06T15:06:52.979Z,9.10
2019-05-06T15:09:22.649Z,9.10
2019-05-06T15:11:51.296Z,9.10
2019-05-06T15:14:19.704Z,9.00
2019-05-06T15:16:48.810Z,8.90
2019-05-06T15:19:17.239Z,8.90
2019-05-06T15:21:45.650Z,8.70
2019-05-06T15:24:14.649Z,8.60
2019-05-06T15:26:43.328Z,8.70
2019-05-06T15:29:12.656Z,8.80
2019-05-06T15:31:54.922Z,8.90
2019-05-06T15:34:42.270Z,8.70
2019-05-06T15:37:15.468Z,8.70
2019-05-06T15:39:43.929Z,8.70
2019-05-06T15:42:12.925Z,8.60
2019-05-06T15:44:44.469Z,8.40
2019-05-06T15:47:15.328Z,8.50
2019-05-06T15:49:43.745Z,8.50
2019-05-06T15:52:12.563Z,8.70
2019-05-06T15:54:43.053Z,8.80
2019-05-06T15:57:11.264Z,9.10
2019-05-06T15:59:42.135Z,9.10
2019-05-06T16:02:09.928Z,9.20
2019-05-06T16:04:38.332Z,9.20
2019-05-06T16:07:06.748Z,9.10
2019-05-06T16:09:35.172Z,9.10
2019-05-06T16:12:03.764Z,9.40
2019-05-06T16:14:34.709Z,9.30
2019-05-06T16:17:02.319Z,9.30
2019-05-06T16:19:33.066Z,9.20
2019-05-06T16:22:00.870Z,9.00
2019-05-06T16:24:34.640Z,8.90
2019-05-06T16:27:02.961Z,9.00
2019-05-06T16:29:37.157Z,9.00
2019-05-06T16:32:07.994Z,9.10
2019-05-06T16:34:36.402Z,9.10
2019-05-06T16:37:05.364Z,8.90
2019-05-06T16:39:33.826Z,9.00
2019-05-06T16:42:03.533Z,9.10
2019-05-06T16:44:32.377Z,8.90
2019-05-06T16:47:02.881Z,8.70
2019-05-06T16:49:32.978Z,8.90
2019-05-06T16:52:02.534Z,9.10
2019-05-06T16:54:34.418Z,9.00
2019-05-06T16:57:03.888Z,9.00
2019-05-06T16:59:33.429Z,8.80
2019-05-06T17:02:03.650Z,8.60
2019-05-06T17:04:39.214Z,8.40
2019-05-06T17:07:07.629Z,8.40
2019-05-06T17:09:36.038Z,8.40
2019-05-06T17:12:07.804Z,8.40
2019-05-06T17:14:36.222Z,8.30
2019-05-06T17:17:04.701Z,8.10
2019-05-06T17:19:33.146Z,7.90
2019-05-06T17:22:03.017Z,7.70
2019-05-06T17:24:33.372Z,7.70
2019-05-06T17:27:02.698Z,7.60
2019-05-06T17:29:49.479Z,7.50
2019-05-06T17:32:33.301Z,7.40
2019-05-06T17:35:02.771Z,7.30
2019-05-06T17:37:45.095Z,7.20
2019-05-06T17:40:18.740Z,7.30
2019-05-06T17:42:47.164Z,7.40
2019-05-06T17:45:34.085Z,7.30
2019-05-06T17:48:12.902Z,7.20
2019-05-06T17:50:42.066Z,7.10
2019-05-06T17:53:12.260Z,7.10
2019-05-06T17:55:43.151Z,7.20
2019-05-06T17:58:12.872Z,7.20
2019-05-06T18:00:42.932Z,7.10
2019-05-06T18:03:11.575Z,7.00
2019-05-06T18:05:42.034Z,7.00
2019-05-06T18:08:12.611Z,6.90
2019-05-06T18:10:42.528Z,6.90
2019-05-06T18:13:12.387Z,6.90
2019-05-06T18:15:42.906Z,6.90
2019-05-06T18:18:12.777Z,6.90
2019-05-06T18:20:42.728Z,7.10
2019-05-06T18:23:12.985Z,7.00
2019-05-06T18:25:43.105Z,7.00
2019-05-06T18:28:12.292Z,6.90
2019-05-06T18:30:40.995Z,6.80
2019-05-06T18:33:09.487Z,6.80
2019-05-06T18:35:37.906Z,6.80
2019-05-06T18:38:06.347Z,6.80
2019-05-06T18:40:34.841Z,6.80
2019-05-06T18:43:03.253Z,6.80
2019-05-06T18:45:33.309Z,6.80
2019-05-06T18:48:02.794Z,6.70
2019-05-06T18:50:32.096Z,6.70
2019-05-06T18:53:03.609Z,6.70
2019-05-06T18:55:42.129Z,6.70
2019-05-06T18:58:12.865Z,6.70
2019-05-06T19:00:43.650Z,6.70
2019-05-06T19:03:13.182Z,6.60
2019-05-06T19:05:43.919Z,6.60
2019-05-06T19:08:32.848Z,6.70
2019-05-06T19:11:02.771Z,6.70
2019-05-06T19:13:33.405Z,6.80
2019-05-06T19:16:03.210Z,6.70
2019-05-06T19:18:33.100Z,6.70
2019-05-06T19:21:02.768Z,6.70
2019-05-06T19:23:32.533Z,6.80
2019-05-06T19:26:02.857Z,6.70
2019-05-06T19:28:33.144Z,6.80
2019-05-06T19:31:03.208Z,6.80
2019-05-06T19:33:34.843Z,6.70
2019-05-06T19:36:04.765Z,6.70
2019-05-06T19:38:34.329Z,6.70
2019-05-06T19:41:05.929Z,6.70
2019-05-06T19:43:35.784Z,6.70
2019-05-06T19:46:05.609Z,6.70
2019-05-06T19:48:35.353Z,6.60
2019-05-06T19:51:05.315Z,6.70
2019-05-06T19:53:35.053Z,6.70
2019-05-06T19:56:04.953Z,6.80
2019-05-06T19:58:35.000Z,6.70
2019-05-06T20:01:05.217Z,6.60
2019-05-06T20:03:35.024Z,6.60
2019-05-06T20:06:13.046Z,6.60
2019-05-06T20:08:47.500Z,6.50
2019-05-06T20:11:32.972Z,6.60
2019-05-06T20:14:02.518Z,6.50
2019-05-06T20:16:32.497Z,6.60
2019-05-06T20:19:02.301Z,6.50
2019-05-06T20:21:32.824Z,6.50
2019-05-06T20:24:02.357Z,6.50
2019-05-06T20:26:32.460Z,6.50
2019-05-06T20:29:02.162Z,6.40
2019-05-06T20:31:32.130Z,6.40
2019-05-06T20:34:02.222Z,6.50
2019-05-06T20:36:33.036Z,6.50
2019-05-06T20:39:02.570Z,6.50
2019-05-06T20:41:32.896Z,6.40
2019-05-06T20:44:02.699Z,6.40
2019-05-06T20:46:32.320Z,6.40
2019-05-06T20:49:02.492Z,6.40
2019-05-06T20:51:32.786Z,6.40
2019-05-06T20:54:01.158Z,6.40
2019-05-06T20:56:33.803Z,6.40
2019-05-06T20:59:02.523Z,6.40
2019-05-06T21:01:32.635Z,6.30
2019-05-06T21:04:02.254Z,6.30
2019-05-06T21:06:32.204Z,6.40
2019-05-06T21:09:02.133Z,6.40
2019-05-06T21:11:32.567Z,6.40
2019-05-06T21:14:02.245Z,6.40
2019-05-06T21:16:32.042Z,6.40
2019-05-06T21:19:02.913Z,6.40
2019-05-06T21:21:33.496Z,6.30
2019-05-06T21:24:02.102Z,6.30
2019-05-06T21:26:32.865Z,6.20
2019-05-06T21:29:03.065Z,6.30
2019-05-06T21:31:32.587Z,6.30
2019-05-06T21:34:01.219Z,6.30
2019-05-06T21:36:29.636Z,6.20
2019-05-06T21:38:58.060Z,6.20
2019-05-06T21:41:26.468Z,6.30
2019-05-06T21:43:54.931Z,6.20
2019-05-06T21:46:23.332Z,6.10
2019-05-06T21:48:52.940Z,6.10
2019-05-06T21:51:22.271Z,6.20
2019-05-06T21:53:50.834Z,6.10
2019-05-06T21:56:22.616Z,6.10
2019-05-06T21:58:52.386Z,6.10
2019-05-06T22:01:22.195Z,6.10
2019-05-06T22:03:50.593Z,6.10
2019-05-06T22:06:18.991Z,6.10
2019-05-06T22:08:47.493Z,6.20
2019-05-06T22:11:15.900Z,6.10
2019-05-06T22:13:57.991Z,6.10
2019-05-06T22:16:14.463Z,6.10
2019-05-06T22:18:45.381Z,6.10
2019-05-06T22:21:22.475Z,6.10
2019-05-06T22:23:54.649Z,6.10
2019-05-06T22:26:23.915Z,6.00
2019-05-06T22:28:52.876Z,6.10
2019-05-06T22:31:23.883Z,6.00
2019-05-06T22:33:51.830Z,6.00
2019-05-06T22:36:22.492Z,6.00
2019-05-06T22:38:52.781Z,5.90
2019-05-06T22:41:23.328Z,5.90
2019-05-06T22:43:52.974Z,6.00
2019-05-06T22:46:23.171Z,6.00
2019-05-06T22:48:54.121Z,5.90
2019-05-06T22:51:22.903Z,5.90
2019-05-06T22:53:53.171Z,5.90
2019-05-06T22:56:22.868Z,5.80
2019-05-06T22:58:52.400Z,5.80
2019-05-06T23:01:39.869Z,5.70
2019-05-06T23:04:08.848Z,5.70
2019-05-06T23:06:37.270Z,5.60
2019-05-06T23:09:08.272Z,5.60
2019-05-06T23:11:38.056Z,5.60
2019-05-06T23:14:06.542Z,5.50
2019-05-06T23:16:35.045Z,5.50
2019-05-06T23:19:03.604Z,5.40
2019-05-06T23:21:35.124Z,5.40
2019-05-06T23:24:03.612Z,5.40
2019-05-06T23:26:32.115Z,5.40
2019-05-06T23:29:02.408Z,5.30
2019-05-06T23:31:32.997Z,5.30
2019-05-06T23:34:02.306Z,5.20
2019-05-06T23:36:52.898Z,5.20
2019-05-06T23:39:58.949Z,5.10
2019-05-06T23:43:03.933Z,5.10
2019-05-06T23:45:49.684Z,5.10
2019-05-06T23:48:54.470Z,5.00
2019-05-06T23:51:59.401Z,5.00
2019-05-06T23:54:45.433Z,5.00
2019-05-06T23:57:12.757Z,4.90
2019-05-06T23:59:43.044Z,4.90
